sensor_id;sensor_type;location;lat;lon;timestamp;temperature;humidity
7447;DHT22;3765;47.962;7.952;2023-05-10T00:01:33;14.30;79.40
7447;DHT22;3765;47.962;7.952;2023-05-10T00:04:01;14.40;79.20
7447;DHT22;3765;47.962;7.952;2023-05-10T00:06:29;14.30;79.30
7447;DHT22;3765;47.962;7.952;2023-05-10T00:08:58;14.40;79.20
7447;DHT22;3765;47.962;7.952;2023-05-10T00:11:26;14.30;79.10
7447;DHT22;3765;47.962;7.952;2023-05-10T00:13:54;14.30;79.10
7447;DHT22;3765;47.962;7.952;2023-05-10T00:16:22;14.30;79.20
7447;DHT22;3765;47.962;7.952;2023-05-10T00:18:52;14.30;79.20
7447;DHT22;3765;47.962;7.952;2023-05-10T00:21:20;14.30;79.20
7447;DHT22;3765;47.962;7.952;2023-05-10T00:23:48;14.30;79.50
7447;DHT22;3765;47.962;7.952;2023-05-10T00:26:16;14.30;79.30
7447;DHT22;3765;47.962;7.952;2023-05-10T00:28:45;14.10;79.10
7447;DHT22;3765;47.962;7.952;2023-05-10T00:31:13;14.20;79.40
7447;DHT22;3765;47.962;7.952;2023-05-10T00:33:41;14.20;79.20
7447;DHT22;3765;47.962;7.952;2023-05-10T00:36:11;14.10;79.00
7447;DHT22;3765;47.962;7.952;2023-05-10T00:38:39;14.10;78.80
7447;DHT22;3765;47.962;7.952;2023-05-10T00:41:07;14.10;78.80
7447;DHT22;3765;47.962;7.952;2023-05-10T00:43:35;14.10;79.00
7447;DHT22;3765;47.962;7.952;2023-05-10T00:46:04;14.20;78.80
7447;DHT22;3765;47.962;7.952;2023-05-10T00:48:32;14.30;78.90
7447;DHT22;3765;47.962;7.952;2023-05-10T00:51:01;14.30;78.60
7447;DHT22;3765;47.962;7.952;2023-05-10T00:53:39;14.30;78.50
7447;DHT22;3765;47.962;7.952;2023-05-10T00:56:23;14.10;78.60
7447;DHT22;3765;47.962;7.952;2023-05-10T00:58:51;14.20;78.60
7447;DHT22;3765;47.962;7.952;2023-05-10T01:01:38;14.20;78.70
7447;DHT22;3765;47.962;7.952;2023-05-10T01:04:13;14.10;78.70
7447;DHT22;3765;47.962;7.952;2023-05-10T01:06:45;14.00;78.60
7447;DHT22;3765;47.962;7.952;2023-05-10T01:09:18;14.10;78.70
7447;DHT22;3765;47.962;7.952;2023-05-10T01:11:51;14.00;78.30
7447;DHT22;3765;47.962;7.952;2023-05-10T01:14:22;14.00;78.30
7447;DHT22;3765;47.962;7.952;2023-05-10T01:16:52;13.90;78.30
7447;DHT22;3765;47.962;7.952;2023-05-10T01:19:23;13.90;78.40
7447;DHT22;3765;47.962;7.952;2023-05-10T01:22:02;13.90;78.30
7447;DHT22;3765;47.962;7.952;2023-05-10T01:25:00;13.80;78.50
7447;DHT22;3765;47.962;7.952;2023-05-10T01:31:03;13.80;78.80
7447;DHT22;3765;47.962;7.952;2023-05-10T01:33:54;13.80;78.70
7447;DHT22;3765;47.962;7.952;2023-05-10T01:36:50;13.80;78.80
7447;DHT22;3765;47.962;7.952;2023-05-10T01:39:28;13.70;78.90
7447;DHT22;3765;47.962;7.952;2023-05-10T01:42:04;13.80;79.00
7447;DHT22;3765;47.962;7.952;2023-05-10T01:44:58;13.80;79.20
7447;DHT22;3765;47.962;7.952;2023-05-10T01:47:41;13.80;79.50
7447;DHT22;3765;47.962;7.952;2023-05-10T01:50:22;13.80;79.50
7447;DHT22;3765;47.962;7.952;2023-05-10T01:53:07;13.80;79.60
7447;DHT22;3765;47.962;7.952;2023-05-10T01:55:46;13.80;79.70
7447;DHT22;3765;47.962;7.952;2023-05-10T01:58:22;13.80;79.80
7447;DHT22;3765;47.962;7.952;2023-05-10T02:00:54;13.80;79.80
7447;DHT22;3765;47.962;7.952;2023-05-10T02:03:28;13.80;79.80
7447;DHT22;3765;47.962;7.952;2023-05-10T02:06:03;13.80;79.80
7447;DHT22;3765;47.962;7.952;2023-05-10T02:08:41;13.80;79.80
7447;DHT22;3765;47.962;7.952;2023-05-10T02:11:13;13.80;79.90
7447;DHT22;3765;47.962;7.952;2023-05-10T02:13:57;13.80;79.80
7447;DHT22;3765;47.962;7.952;2023-05-10T02:16:27;13.90;79.60
7447;DHT22;3765;47.962;7.952;2023-05-10T02:18:59;13.80;79.30
7447;DHT22;3765;47.962;7.952;2023-05-10T02:21:32;13.80;79.30
7447;DHT22;3765;47.962;7.952;2023-05-10T02:24:05;13.80;79.00
7447;DHT22;3765;47.962;7.952;2023-05-10T02:26:51;13.90;79.20
7447;DHT22;3765;47.962;7.952;2023-05-10T02:29:26;13.90;79.20
7447;DHT22;3765;47.962;7.952;2023-05-10T02:31:57;13.90;79.00
7447;DHT22;3765;47.962;7.952;2023-05-10T02:34:31;13.80;78.90
7447;DHT22;3765;47.962;7.952;2023-05-10T02:37:09;13.80;79.00
7447;DHT22;3765;47.962;7.952;2023-05-10T02:39:39;13.70;79.20
7447;DHT22;3765;47.962;7.952;2023-05-10T02:42:17;13.80;79.30
7447;DHT22;3765;47.962;7.952;2023-05-10T02:44:59;13.80;79.20
7447;DHT22;3765;47.962;7.952;2023-05-10T02:47:31;13.80;79.30
7447;DHT22;3765;47.962;7.952;2023-05-10T02:50:14;13.80;79.50
7447;DHT22;3765;47.962;7.952;2023-05-10T02:53:09;13.70;79.60
7447;DHT22;3765;47.962;7.952;2023-05-10T02:55:41;13.50;80.10
7447;DHT22;3765;47.962;7.952;2023-05-10T02:58:14;13.50;80.40
7447;DHT22;3765;47.962;7.952;2023-05-10T03:00:55;13.50;80.70
7447;DHT22;3765;47.962;7.952;2023-05-10T03:03:23;13.40;80.90
7447;DHT22;3765;47.962;7.952;2023-05-10T03:05:54;13.40;81.20
7447;DHT22;3765;47.962;7.952;2023-05-10T03:08:36;13.40;81.40
7447;DHT22;3765;47.962;7.952;2023-05-10T03:11:22;13.30;81.50
7447;DHT22;3765;47.962;7.952;2023-05-10T03:14:07;13.30;81.70
7447;DHT22;3765;47.962;7.952;2023-05-10T03:16:45;13.30;81.80
7447;DHT22;3765;47.962;7.952;2023-05-10T03:19:17;13.20;81.90
7447;DHT22;3765;47.962;7.952;2023-05-10T03:21:52;13.30;81.90
7447;DHT22;3765;47.962;7.952;2023-05-10T03:24:30;13.40;81.70
7447;DHT22;3765;47.962;7.952;2023-05-10T03:27:07;13.50;81.00
7447;DHT22;3765;47.962;7.952;2023-05-10T03:29:45;13.60;80.60
7447;DHT22;3765;47.962;7.952;2023-05-10T03:32:29;13.60;80.20
7447;DHT22;3765;47.962;7.952;2023-05-10T03:35:16;13.50;80.10
7447;DHT22;3765;47.962;7.952;2023-05-10T03:37:47;13.60;80.10
7447;DHT22;3765;47.962;7.952;2023-05-10T03:40:19;13.40;80.10
7447;DHT22;3765;47.962;7.952;2023-05-10T03:42:52;13.40;80.10
7447;DHT22;3765;47.962;7.952;2023-05-10T03:45:23;13.40;80.20
7447;DHT22;3765;47.962;7.952;2023-05-10T03:47:55;13.40;80.20
7447;DHT22;3765;47.962;7.952;2023-05-10T03:50:25;13.40;80.20
7447;DHT22;3765;47.962;7.952;2023-05-10T03:53:09;13.40;80.10
7447;DHT22;3765;47.962;7.952;2023-05-10T03:55:51;13.30;80.40
7447;DHT22;3765;47.962;7.952;2023-05-10T03:58:23;13.40;80.70
7447;DHT22;3765;47.962;7.952;2023-05-10T04:00:57;13.30;80.90
7447;DHT22;3765;47.962;7.952;2023-05-10T04:03:39;13.30;81.20
7447;DHT22;3765;47.962;7.952;2023-05-10T04:06:19;13.30;81.30
7447;DHT22;3765;47.962;7.952;2023-05-10T04:08:54;13.20;81.50
7447;DHT22;3765;47.962;7.952;2023-05-10T04:11:25;13.10;81.70
7447;DHT22;3765;47.962;7.952;2023-05-10T04:14:10;13.00;81.90
7447;DHT22;3765;47.962;7.952;2023-05-10T04:16:38;13.00;82.20
7447;DHT22;3765;47.962;7.952;2023-05-10T04:19:07;12.90;82.30
7447;DHT22;3765;47.962;7.952;2023-05-10T04:21:38;12.90;82.40
7447;DHT22;3765;47.962;7.952;2023-05-10T04:24:13;12.90;82.50
7447;DHT22;3765;47.962;7.952;2023-05-10T04:27:01;13.00;82.60
7447;DHT22;3765;47.962;7.952;2023-05-10T04:29:40;12.90;82.60
7447;DHT22;3765;47.962;7.952;2023-05-10T04:32:14;12.80;82.70
7447;DHT22;3765;47.962;7.952;2023-05-10T04:34:45;12.80;82.90
7447;DHT22;3765;47.962;7.952;2023-05-10T04:37:30;12.80;83.00
7447;DHT22;3765;47.962;7.952;2023-05-10T04:40:13;12.80;83.00
7447;DHT22;3765;47.962;7.952;2023-05-10T04:42:47;12.80;82.90
7447;DHT22;3765;47.962;7.952;2023-05-10T04:45:28;12.80;83.00
7447;DHT22;3765;47.962;7.952;2023-05-10T04:48:04;12.90;83.20
7447;DHT22;3765;47.962;7.952;2023-05-10T04:50:48;12.90;83.10
7447;DHT22;3765;47.962;7.952;2023-05-10T04:53:17;12.80;83.10
7447;DHT22;3765;47.962;7.952;2023-05-10T04:55:48;12.80;83.00
7447;DHT22;3765;47.962;7.952;2023-05-10T04:58:19;12.80;83.20
7447;DHT22;3765;47.962;7.952;2023-05-10T05:01:07;12.80;83.10
7447;DHT22;3765;47.962;7.952;2023-05-10T05:03:37;12.80;83.30
7447;DHT22;3765;47.962;7.952;2023-05-10T05:06:11;12.80;83.30
7447;DHT22;3765;47.962;7.952;2023-05-10T05:08:39;12.80;83.30
7447;DHT22;3765;47.962;7.952;2023-05-10T05:11:15;12.80;83.30
7447;DHT22;3765;47.962;7.952;2023-05-10T05:13:49;12.70;83.20
7447;DHT22;3765;47.962;7.952;2023-05-10T05:16:22;12.80;83.30
7447;DHT22;3765;47.962;7.952;2023-05-10T05:19:06;12.80;83.30
7447;DHT22;3765;47.962;7.952;2023-05-10T05:21:37;12.80;83.40
7447;DHT22;3765;47.962;7.952;2023-05-10T05:24:20;12.80;83.40
7447;DHT22;3765;47.962;7.952;2023-05-10T05:26:49;12.80;83.50
7447;DHT22;3765;47.962;7.952;2023-05-10T05:29:26;12.90;83.50
7447;DHT22;3765;47.962;7.952;2023-05-10T05:32:00;12.90;83.60
7447;DHT22;3765;47.962;7.952;2023-05-10T05:34:34;12.90;83.50
7447;DHT22;3765;47.962;7.952;2023-05-10T05:37:07;12.90;83.50
7447;DHT22;3765;47.962;7.952;2023-05-10T05:39:36;13.00;83.70
7447;DHT22;3765;47.962;7.952;2023-05-10T05:42:10;13.10;83.70
7447;DHT22;3765;47.962;7.952;2023-05-10T05:44:45;13.00;83.60
7447;DHT22;3765;47.962;7.952;2023-05-10T05:47:17;13.10;83.80
7447;DHT22;3765;47.962;7.952;2023-05-10T05:49:46;13.30;83.70
7447;DHT22;3765;47.962;7.952;2023-05-10T05:52:16;13.30;83.70
7447;DHT22;3765;47.962;7.952;2023-05-10T05:54:58;13.40;83.60
7447;DHT22;3765;47.962;7.952;2023-05-10T05:57:41;13.30;83.20
7447;DHT22;3765;47.962;7.952;2023-05-10T06:00:15;13.40;83.00
7447;DHT22;3765;47.962;7.952;2023-05-10T06:02:44;13.40;82.90
7447;DHT22;3765;47.962;7.952;2023-05-10T06:05:13;13.50;82.90
7447;DHT22;3765;47.962;7.952;2023-05-10T06:07:59;13.60;82.90
7447;DHT22;3765;47.962;7.952;2023-05-10T06:10:29;13.50;82.60
7447;DHT22;3765;47.962;7.952;2023-05-10T06:13:19;13.50;81.90
7447;DHT22;3765;47.962;7.952;2023-05-10T06:15:56;13.70;81.80
7447;DHT22;3765;47.962;7.952;2023-05-10T06:18:24;13.80;81.30
7447;DHT22;3765;47.962;7.952;2023-05-10T06:20:55;13.70;80.90
7447;DHT22;3765;47.962;7.952;2023-05-10T06:23:31;13.70;80.60
7447;DHT22;3765;47.962;7.952;2023-05-10T06:25:59;13.70;80.40
7447;DHT22;3765;47.962;7.952;2023-05-10T06:28:39;13.70;80.30
7447;DHT22;3765;47.962;7.952;2023-05-10T06:31:14;13.80;79.90
7447;DHT22;3765;47.962;7.952;2023-05-10T06:33:44;14.00;79.90
7447;DHT22;3765;47.962;7.952;2023-05-10T06:36:16;14.00;79.70
7447;DHT22;3765;47.962;7.952;2023-05-10T06:38:58;14.00;79.70
7447;DHT22;3765;47.962;7.952;2023-05-10T06:41:30;14.00;79.60
7447;DHT22;3765;47.962;7.952;2023-05-10T06:44:00;14.20;79.30
7447;DHT22;3765;47.962;7.952;2023-05-10T06:46:37;14.00;78.70
7447;DHT22;3765;47.962;7.952;2023-05-10T06:49:09;14.10;78.40
7447;DHT22;3765;47.962;7.952;2023-05-10T06:51:51;14.10;78.00
7447;DHT22;3765;47.962;7.952;2023-05-10T06:54:21;14.30;77.90
7447;DHT22;3765;47.962;7.952;2023-05-10T06:56:52;14.40;77.70
7447;DHT22;3765;47.962;7.952;2023-05-10T06:59:23;14.40;77.10
7447;DHT22;3765;47.962;7.952;2023-05-10T07:02:08;14.60;76.90
7447;DHT22;3765;47.962;7.952;2023-05-10T07:04:43;14.70;76.80
7447;DHT22;3765;47.962;7.952;2023-05-10T07:07:45;14.80;77.00
7447;DHT22;3765;47.962;7.952;2023-05-10T07:10:30;14.80;76.20
7447;DHT22;3765;47.962;7.952;2023-05-10T07:13:04;14.80;76.30
7447;DHT22;3765;47.962;7.952;2023-05-10T07:15:36;14.80;76.30
7447;DHT22;3765;47.962;7.952;2023-05-10T07:21:30;14.70;76.10
7447;DHT22;3765;47.962;7.952;2023-05-10T07:24:02;14.70;75.90
7447;DHT22;3765;47.962;7.952;2023-05-10T07:26:56;14.60;75.70
7447;DHT22;3765;47.962;7.952;2023-05-10T07:29:34;14.70;75.60
7447;DHT22;3765;47.962;7.952;2023-05-10T07:32:10;14.80;75.40
7447;DHT22;3765;47.962;7.952;2023-05-10T07:34:41;15.00;75.10
7447;DHT22;3765;47.962;7.952;2023-05-10T07:37:22;15.20;75.30
7447;DHT22;3765;47.962;7.952;2023-05-10T07:39:50;15.10;75.00
7447;DHT22;3765;47.962;7.952;2023-05-10T07:42:19;14.90;74.80
7447;DHT22;3765;47.962;7.952;2023-05-10T07:44:50;14.90;75.00
7447;DHT22;3765;47.962;7.952;2023-05-10T07:47:19;15.10;75.10
7447;DHT22;3765;47.962;7.952;2023-05-10T07:49:47;15.00;74.60
7447;DHT22;3765;47.962;7.952;2023-05-10T07:52:15;15.00;74.60
7447;DHT22;3765;47.962;7.952;2023-05-10T07:54:44;15.20;74.40
7447;DHT22;3765;47.962;7.952;2023-05-10T07:57:13;14.90;73.50
7447;DHT22;3765;47.962;7.952;2023-05-10T07:59:44;15.00;74.00
7447;DHT22;3765;47.962;7.952;2023-05-10T08:02:12;14.80;73.80
7447;DHT22;3765;47.962;7.952;2023-05-10T08:04:41;14.90;74.10
7447;DHT22;3765;47.962;7.952;2023-05-10T08:07:12;15.00;73.80
7447;DHT22;3765;47.962;7.952;2023-05-10T08:09:45;15.20;73.70
7447;DHT22;3765;47.962;7.952;2023-05-10T08:12:30;15.40;73.50
7447;DHT22;3765;47.962;7.952;2023-05-10T08:15:02;15.50;73.10
7447;DHT22;3765;47.962;7.952;2023-05-10T08:17:31;15.70;72.60
7447;DHT22;3765;47.962;7.952;2023-05-10T08:20:06;15.70;72.30
7447;DHT22;3765;47.962;7.952;2023-05-10T08:22:34;15.60;72.00
7447;DHT22;3765;47.962;7.952;2023-05-10T08:25:05;15.60;71.70
7447;DHT22;3765;47.962;7.952;2023-05-10T08:27:33;15.70;71.70
7447;DHT22;3765;47.962;7.952;2023-05-10T08:30:01;15.80;71.50
7447;DHT22;3765;47.962;7.952;2023-05-10T08:32:29;16.00;71.60
7447;DHT22;3765;47.962;7.952;2023-05-10T08:34:58;15.90;71.10
7447;DHT22;3765;47.962;7.952;2023-05-10T08:37:29;15.90;70.90
7447;DHT22;3765;47.962;7.952;2023-05-10T08:39:59;15.90;70.90
7447;DHT22;3765;47.962;7.952;2023-05-10T08:42:30;15.50;70.50
7447;DHT22;3765;47.962;7.952;2023-05-10T08:45:01;15.40;70.70
7447;DHT22;3765;47.962;7.952;2023-05-10T08:47:30;15.20;70.40
7447;DHT22;3765;47.962;7.952;2023-05-10T08:49:59;15.30;70.70
7447;DHT22;3765;47.962;7.952;2023-05-10T08:52:28;15.60;70.20
7447;DHT22;3765;47.962;7.952;2023-05-10T08:54:58;15.70;69.70
7447;DHT22;3765;47.962;7.952;2023-05-10T08:57:27;15.80;70.10
7447;DHT22;3765;47.962;7.952;2023-05-10T08:59:56;15.80;69.30
7447;DHT22;3765;47.962;7.952;2023-05-10T09:02:24;15.80;69.00
7447;DHT22;3765;47.962;7.952;2023-05-10T09:04:55;16.10;68.90
7447;DHT22;3765;47.962;7.952;2023-05-10T09:07:27;16.20;68.20
7447;DHT22;3765;47.962;7.952;2023-05-10T09:09:55;16.10;68.00
7447;DHT22;3765;47.962;7.952;2023-05-10T09:12:24;16.40;67.70
7447;DHT22;3765;47.962;7.952;2023-05-10T09:14:54;16.40;66.70
7447;DHT22;3765;47.962;7.952;2023-05-10T09:17:27;16.20;66.40
7447;DHT22;3765;47.962;7.952;2023-05-10T09:20:00;16.10;66.10
7447;DHT22;3765;47.962;7.952;2023-05-10T09:22:29;16.40;66.20
7447;DHT22;3765;47.962;7.952;2023-05-10T09:25:08;16.70;66.00
7447;DHT22;3765;47.962;7.952;2023-05-10T09:27:38;16.70;65.50
7447;DHT22;3765;47.962;7.952;2023-05-10T09:30:09;16.80;65.20
7447;DHT22;3765;47.962;7.952;2023-05-10T09:32:38;17.00;64.20
7447;DHT22;3765;47.962;7.952;2023-05-10T09:35:08;17.10;63.90
7447;DHT22;3765;47.962;7.952;2023-05-10T09:37:36;17.50;64.60
7447;DHT22;3765;47.962;7.952;2023-05-10T09:40:12;17.60;64.00
7447;DHT22;3765;47.962;7.952;2023-05-10T09:42:43;17.40;62.20
7447;DHT22;3765;47.962;7.952;2023-05-10T09:45:20;17.00;62.80
7447;DHT22;3765;47.962;7.952;2023-05-10T09:47:49;17.00;63.20
7447;DHT22;3765;47.962;7.952;2023-05-10T09:50:19;16.90;63.30
7447;DHT22;3765;47.962;7.952;2023-05-10T09:52:48;17.00;63.30
7447;DHT22;3765;47.962;7.952;2023-05-10T09:55:18;16.60;62.70
7447;DHT22;3765;47.962;7.952;2023-05-10T09:57:47;16.60;63.00
7447;DHT22;3765;47.962;7.952;2023-05-10T10:00:23;16.80;62.50
7447;DHT22;3765;47.962;7.952;2023-05-10T10:02:55;16.80;62.30
7447;DHT22;3765;47.962;7.952;2023-05-10T10:05:28;17.00;61.60
7447;DHT22;3765;47.962;7.952;2023-05-10T10:08:01;17.10;60.90
7447;DHT22;3765;47.962;7.952;2023-05-10T10:10:31;17.30;61.50
7447;DHT22;3765;47.962;7.952;2023-05-10T10:13:00;17.60;60.40
7447;DHT22;3765;47.962;7.952;2023-05-10T10:15:38;17.80;59.70
7447;DHT22;3765;47.962;7.952;2023-05-10T10:18:06;18.30;59.80
7447;DHT22;3765;47.962;7.952;2023-05-10T10:20:37;18.60;59.40
7447;DHT22;3765;47.962;7.952;2023-05-10T10:23:05;18.20;58.50
7447;DHT22;3765;47.962;7.952;2023-05-10T10:25:35;18.30;58.00
7447;DHT22;3765;47.962;7.952;2023-05-10T10:28:12;18.50;58.60
7447;DHT22;3765;47.962;7.952;2023-05-10T10:30:51;18.60;57.90
7447;DHT22;3765;47.962;7.952;2023-05-10T10:33:44;18.40;57.50
7447;DHT22;3765;47.962;7.952;2023-05-10T10:36:26;18.70;57.40
7447;DHT22;3765;47.962;7.952;2023-05-10T10:39:00;18.80;56.90
7447;DHT22;3765;47.962;7.952;2023-05-10T10:41:32;18.70;56.80
7447;DHT22;3765;47.962;7.952;2023-05-10T10:44:26;18.70;56.30
7447;DHT22;3765;47.962;7.952;2023-05-10T10:47:07;19.20;55.80
7447;DHT22;3765;47.962;7.952;2023-05-10T10:49:42;19.30;54.60
7447;DHT22;3765;47.962;7.952;2023-05-10T10:52:15;19.30;53.10
7447;DHT22;3765;47.962;7.952;2023-05-10T10:54:52;18.90;51.50
7447;DHT22;3765;47.962;7.952;2023-05-10T10:57:20;18.80;53.10
7447;DHT22;3765;47.962;7.952;2023-05-10T11:00:25;18.80;53.10
7447;DHT22;3765;47.962;7.952;2023-05-10T11:02:57;19.30;52.80
7447;DHT22;3765;47.962;7.952;2023-05-10T11:05:36;19.30;52.40
7447;DHT22;3765;47.962;7.952;2023-05-10T11:08:13;19.40;52.30
7447;DHT22;3765;47.962;7.952;2023-05-10T11:11:02;19.00;51.60
7447;DHT22;3765;47.962;7.952;2023-05-10T11:13:32;18.90;52.40
7447;DHT22;3765;47.962;7.952;2023-05-10T11:16:11;18.80;51.50
7447;DHT22;3765;47.962;7.952;2023-05-10T11:19:01;19.00;52.20
7447;DHT22;3765;47.962;7.952;2023-05-10T11:21:30;19.40;52.00
7447;DHT22;3765;47.962;7.952;2023-05-10T11:24:00;19.90;51.10
7447;DHT22;3765;47.962;7.952;2023-05-10T11:26:34;19.70;49.70
7447;DHT22;3765;47.962;7.952;2023-05-10T11:29:03;19.20;50.10
7447;DHT22;3765;47.962;7.952;2023-05-10T11:31:32;19.00;50.50
7447;DHT22;3765;47.962;7.952;2023-05-10T11:34:01;19.40;50.10
7447;DHT22;3765;47.962;7.952;2023-05-10T11:36:33;20.00;50.30
7447;DHT22;3765;47.962;7.952;2023-05-10T11:39:03;20.20;49.30
7447;DHT22;3765;47.962;7.952;2023-05-10T11:41:31;20.20;49.40
7447;DHT22;3765;47.962;7.952;2023-05-10T11:44:00;20.50;49.20
7447;DHT22;3765;47.962;7.952;2023-05-10T11:46:28;20.10;48.00
7447;DHT22;3765;47.962;7.952;2023-05-10T11:49:00;19.90;48.90
7447;DHT22;3765;47.962;7.952;2023-05-10T11:51:33;20.40;48.90
7447;DHT22;3765;47.962;7.952;2023-05-10T11:54:06;21.10;48.50
7447;DHT22;3765;47.962;7.952;2023-05-10T11:56:34;20.70;46.80
7447;DHT22;3765;47.962;7.952;2023-05-10T11:59:03;20.30;47.60
7447;DHT22;3765;47.962;7.952;2023-05-10T12:01:33;20.50;45.10
7447;DHT22;3765;47.962;7.952;2023-05-10T12:04:03;20.00;47.70
7447;DHT22;3765;47.962;7.952;2023-05-10T12:06:39;20.10;47.20
7447;DHT22;3765;47.962;7.952;2023-05-10T12:09:08;20.00;47.90
7447;DHT22;3765;47.962;7.952;2023-05-10T12:11:38;20.30;47.80
7447;DHT22;3765;47.962;7.952;2023-05-10T12:14:10;20.40;47.10
7447;DHT22;3765;47.962;7.952;2023-05-10T12:16:40;20.70;47.40
7447;DHT22;3765;47.962;7.952;2023-05-10T12:19:10;20.20;47.10
7447;DHT22;3765;47.962;7.952;2023-05-10T12:21:38;20.50;46.50
7447;DHT22;3765;47.962;7.952;2023-05-10T12:24:08;20.90;46.90
7447;DHT22;3765;47.962;7.952;2023-05-10T12:26:37;21.20;46.40
7447;DHT22;3765;47.962;7.952;2023-05-10T12:29:13;20.90;46.10
7447;DHT22;3765;47.962;7.952;2023-05-10T12:31:52;20.50;45.20
7447;DHT22;3765;47.962;7.952;2023-05-10T12:34:30;20.80;45.10
7447;DHT22;3765;47.962;7.952;2023-05-10T12:36:59;20.50;45.00
7447;DHT22;3765;47.962;7.952;2023-05-10T12:39:39;20.30;45.50
7447;DHT22;3765;47.962;7.952;2023-05-10T12:42:08;20.10;45.80
7447;DHT22;3765;47.962;7.952;2023-05-10T12:44:37;20.20;45.50
7447;DHT22;3765;47.962;7.952;2023-05-10T12:47:05;19.50;45.90
7447;DHT22;3765;47.962;7.952;2023-05-10T12:49:35;18.80;46.60
7447;DHT22;3765;47.962;7.952;2023-05-10T12:52:04;18.40;48.50
7447;DHT22;3765;47.962;7.952;2023-05-10T12:54:32;18.20;49.40
7447;DHT22;3765;47.962;7.952;2023-05-10T12:57:01;18.00;49.90
7447;DHT22;3765;47.962;7.952;2023-05-10T12:59:30;18.30;50.50
7447;DHT22;3765;47.962;7.952;2023-05-10T13:02:03;19.40;50.30
7447;DHT22;3765;47.962;7.952;2023-05-10T13:04:32;21.00;49.30
7447;DHT22;3765;47.962;7.952;2023-05-10T13:07:02;21.80;46.00
7447;DHT22;3765;47.962;7.952;2023-05-10T13:09:31;21.40;47.20
7447;DHT22;3765;47.962;7.952;2023-05-10T13:11:59;21.30;46.90
7447;DHT22;3765;47.962;7.952;2023-05-10T13:14:30;20.90;47.00
7447;DHT22;3765;47.962;7.952;2023-05-10T13:16:59;21.10;47.20
7447;DHT22;3765;47.962;7.952;2023-05-10T13:19:27;20.50;46.40
7447;DHT22;3765;47.962;7.952;2023-05-10T13:21:56;20.20;46.60
7447;DHT22;3765;47.962;7.952;2023-05-10T13:24:26;20.80;47.20
7447;DHT22;3765;47.962;7.952;2023-05-10T13:26:54;21.00;46.30
7447;DHT22;3765;47.962;7.952;2023-05-10T13:29:22;20.80;46.20
7447;DHT22;3765;47.962;7.952;2023-05-10T13:31:50;20.30;45.90
7447;DHT22;3765;47.962;7.952;2023-05-10T13:34:18;20.00;46.50
7447;DHT22;3765;47.962;7.952;2023-05-10T13:36:48;19.90;46.70
7447;DHT22;3765;47.962;7.952;2023-05-10T13:39:16;19.80;47.10
7447;DHT22;3765;47.962;7.952;2023-05-10T13:41:48;20.50;46.00
7447;DHT22;3765;47.962;7.952;2023-05-10T13:44:20;21.30;46.60
7447;DHT22;3765;47.962;7.952;2023-05-10T13:46:48;22.10;45.10
7447;DHT22;3765;47.962;7.952;2023-05-10T13:49:17;21.90;45.50
7447;DHT22;3765;47.962;7.952;2023-05-10T13:51:45;22.30;44.90
7447;DHT22;3765;47.962;7.952;2023-05-10T13:54:13;22.00;44.70
7447;DHT22;3765;47.962;7.952;2023-05-10T13:56:42;22.50;44.80
7447;DHT22;3765;47.962;7.952;2023-05-10T13:59:12;23.00;43.70
7447;DHT22;3765;47.962;7.952;2023-05-10T14:01:41;23.10;44.00
7447;DHT22;3765;47.962;7.952;2023-05-10T14:04:09;24.00;43.40
7447;DHT22;3765;47.962;7.952;2023-05-10T14:06:38;24.00;42.80
7447;DHT22;3765;47.962;7.952;2023-05-10T14:09:06;24.00;42.10
7447;DHT22;3765;47.962;7.952;2023-05-10T14:11:34;22.60;42.40
7447;DHT22;3765;47.962;7.952;2023-05-10T14:14:03;21.30;43.10
7447;DHT22;3765;47.962;7.952;2023-05-10T14:16:32;20.80;44.20
7447;DHT22;3765;47.962;7.952;2023-05-10T14:19:01;20.60;45.40
7447;DHT22;3765;47.962;7.952;2023-05-10T14:21:29;20.50;46.70
7447;DHT22;3765;47.962;7.952;2023-05-10T14:23:57;20.00;46.70
7447;DHT22;3765;47.962;7.952;2023-05-10T14:26:26;20.30;46.90
7447;DHT22;3765;47.962;7.952;2023-05-10T14:28:54;20.50;47.10
7447;DHT22;3765;47.962;7.952;2023-05-10T14:31:22;20.40;47.20
7447;DHT22;3765;47.962;7.952;2023-05-10T14:33:54;19.90;46.50
7447;DHT22;3765;47.962;7.952;2023-05-10T14:36:22;20.00;47.20
7447;DHT22;3765;47.962;7.952;2023-05-10T14:38:50;19.90;47.10
7447;DHT22;3765;47.962;7.952;2023-05-10T14:41:18;20.50;46.10
7447;DHT22;3765;47.962;7.952;2023-05-10T14:43:46;20.20;47.10
7447;DHT22;3765;47.962;7.952;2023-05-10T14:46:15;20.80;46.80
7447;DHT22;3765;47.962;7.952;2023-05-10T14:48:43;20.50;46.80
7447;DHT22;3765;47.962;7.952;2023-05-10T14:51:12;20.60;46.10
7447;DHT22;3765;47.962;7.952;2023-05-10T14:53:40;20.80;45.50
7447;DHT22;3765;47.962;7.952;2023-05-10T14:56:09;20.30;45.10
7447;DHT22;3765;47.962;7.952;2023-05-10T14:58:37;19.80;45.80
7447;DHT22;3765;47.962;7.952;2023-05-10T15:01:05;19.70;46.00
7447;DHT22;3765;47.962;7.952;2023-05-10T15:03:34;20.60;46.40
7447;DHT22;3765;47.962;7.952;2023-05-10T15:06:03;21.50;45.90
7447;DHT22;3765;47.962;7.952;2023-05-10T15:08:33;22.30;44.20
7447;DHT22;3765;47.962;7.952;2023-05-10T15:11:01;22.40;44.70
7447;DHT22;3765;47.962;7.952;2023-05-10T15:13:29;22.60;44.50
7447;DHT22;3765;47.962;7.952;2023-05-10T15:15:58;22.00;44.30
7447;DHT22;3765;47.962;7.952;2023-05-10T15:18:26;21.40;44.70
7447;DHT22;3765;47.962;7.952;2023-05-10T15:20:54;20.50;45.20
7447;DHT22;3765;47.962;7.952;2023-05-10T15:23:23;20.50;45.10
7447;DHT22;3765;47.962;7.952;2023-05-10T15:25:52;20.40;45.40
7447;DHT22;3765;47.962;7.952;2023-05-10T15:28:22;19.90;45.60
7447;DHT22;3765;47.962;7.952;2023-05-10T15:30:51;20.10;46.50
7447;DHT22;3765;47.962;7.952;2023-05-10T15:33:19;21.80;45.50
7447;DHT22;3765;47.962;7.952;2023-05-10T15:35:47;23.80;44.00
7447;DHT22;3765;47.962;7.952;2023-05-10T15:38:15;24.00;43.10
7447;DHT22;3765;47.962;7.952;2023-05-10T15:40:44;24.80;41.00
7447;DHT22;3765;47.962;7.952;2023-05-10T15:43:13;25.80;41.00
7447;DHT22;3765;47.962;7.952;2023-05-10T15:45:42;27.40;38.80
7447;DHT22;3765;47.962;7.952;2023-05-10T15:48:10;27.60;37.90
7447;DHT22;3765;47.962;7.952;2023-05-10T15:50:38;27.20;37.80
7447;DHT22;3765;47.962;7.952;2023-05-10T15:53:07;26.20;37.50
7447;DHT22;3765;47.962;7.952;2023-05-10T15:55:35;25.30;38.40
7447;DHT22;3765;47.962;7.952;2023-05-10T15:58:03;23.50;39.60
7447;DHT22;3765;47.962;7.952;2023-05-10T16:00:33;25.20;39.70
7447;DHT22;3765;47.962;7.952;2023-05-10T16:03:01;24.20;38.90
7447;DHT22;3765;47.962;7.952;2023-05-10T16:05:30;22.30;40.50
7447;DHT22;3765;47.962;7.952;2023-05-10T16:07:59;21.80;41.00
7447;DHT22;3765;47.962;7.952;2023-05-10T16:10:30;20.90;41.00
7447;DHT22;3765;47.962;7.952;2023-05-10T16:12:59;20.50;41.90
7447;DHT22;3765;47.962;7.952;2023-05-10T16:15:28;20.30;42.30
7447;DHT22;3765;47.962;7.952;2023-05-10T16:17:57;19.80;42.80
7447;DHT22;3765;47.962;7.952;2023-05-10T16:20:26;20.10;43.00
7447;DHT22;3765;47.962;7.952;2023-05-10T16:22:55;19.90;43.20
7447;DHT22;3765;47.962;7.952;2023-05-10T16:25:24;19.50;43.50
7447;DHT22;3765;47.962;7.952;2023-05-10T16:27:52;19.40;44.20
7447;DHT22;3765;47.962;7.952;2023-05-10T16:30:20;19.10;44.50
7447;DHT22;3765;47.962;7.952;2023-05-10T16:32:50;18.90;45.10
7447;DHT22;3765;47.962;7.952;2023-05-10T16:35:19;18.80;45.30
7447;DHT22;3765;47.962;7.952;2023-05-10T16:37:49;20.00;47.50
7447;DHT22;3765;47.962;7.952;2023-05-10T16:40:17;26.40;40.60
7447;DHT22;3765;47.962;7.952;2023-05-10T16:42:46;29.70;37.90
7447;DHT22;3765;47.962;7.952;2023-05-10T16:45:14;30.10;35.80